»·PEaware :: N311PM KPRC-KSAN

N311PM :: KPRC-KSAN

FLIGHT INFORMATION

Flight Status: Arrived
Operator: Privately registered:
United States
More flights under this callsign
Pilot: Paul A. (20189)
Aircraft: BOEING 737-600
(B736)
More flights by this aircraft type
Origin: KPRC Love
United States
Destination: KSAN San Diego Intl-Lindbergh
United States
More flights between these airports :: More routes between these airports
Route: +DRK PKE LUCKI1
File this flight plan on PilotEdge
Remarks:
Altitude:
(Current/Filed)
28,000ft
Speed:
(Current/Filed)
455kts
Departed: 24-Nov-18 10:22 AM
Arrived: 24-Nov-18 11:11 AM
Distance/Time
Traveled:
265nm/0:49
Distance/Time
To Go:
Arrived

Flight Plot

Page will automatically refresh every two minutes.

Flight plan parsing failed; only flown route is shown


Map Options




Map Legend


Flown Route
Filed Route
Departure Airport
Arrival Airport
Navaid (VOR, NDB)
Fix

Horizontal Profiles

Position Reports

Time Latitude Longitude Heading Altitude Ground
Speed
24-Nov-18 10:04 34.650766 -112.428021 131 4993ft 0kts
24-Nov-18 10:05 34.650766 -112.428021 131 4993ft 0kts
24-Nov-18 10:06 34.650766 -112.428021 131 4993ft 0kts
24-Nov-18 10:07 34.650766 -112.428021 131 4993ft 0kts
24-Nov-18 10:08 34.650766 -112.428021 131 4993ft 0kts
24-Nov-18 10:09 34.650766 -112.428021 131 4993ft 0kts
24-Nov-18 10:10 34.650766 -112.428021 131 4993ft 0kts
24-Nov-18 10:11 34.650766 -112.428021 131 4993ft 0kts
24-Nov-18 10:12 34.650766 -112.428021 131 4994ft 0kts
24-Nov-18 10:13 34.650766 -112.428021 131 4994ft 0kts
24-Nov-18 10:14 34.650766 -112.428021 131 4994ft 0kts
24-Nov-18 10:15 34.650766 -112.428021 131 4994ft 0kts
24-Nov-18 10:16 34.650766 -112.428021 131 4994ft 0kts
24-Nov-18 10:17 34.650766 -112.428021 131 4994ft 0kts
24-Nov-18 10:18 34.650764 -112.428019 131 4994ft 0kts
24-Nov-18 10:19 34.650763 -112.428018 131 4994ft 0kts
24-Nov-18 10:20 34.650265 -112.426347 99 4994ft 10kts
24-Nov-18 10:21 34.653795 -112.422244 41 4994ft 19kts
24-Nov-18 10:22 34.658199 -112.417484 41 4994ft 17kts
24-Nov-18 10:23 34.661830 -112.413018 122 4994ft 8kts
24-Nov-18 10:24 34.661691 -112.412794 128 4994ft 0kts
24-Nov-18 10:25 34.659503 -112.414075 221 4994ft 67kts
24-Nov-18 10:26 34.624064 -112.445916 211 8881ft 175kts
24-Nov-18 10:27 34.563623 -112.485748 211 10191ft 280kts
24-Nov-18 10:28 34.526662 -112.567212 258 12014ft 322kts
24-Nov-18 10:29 34.505331 -112.677440 258 15906ft 345kts
24-Nov-18 10:30 34.482712 -112.794111 258 19725ft 366kts
24-Nov-18 10:31 34.458510 -112.918055 258 23010ft 388kts
24-Nov-18 10:32 34.432831 -113.048676 258 25951ft 406kts
24-Nov-18 10:33 34.406403 -113.184713 258 28023ft 430kts
24-Nov-18 10:34 34.377144 -113.333651 258 28042ft 473kts
24-Nov-18 10:35 34.347986 -113.480675 258 28020ft 419kts
24-Nov-18 10:36 34.320473 -113.618285 258 28018ft 422kts
24-Nov-18 10:37 34.292735 -113.756123 257 28014ft 423kts
24-Nov-18 10:38 34.264806 -113.894048 257 28012ft 423kts
24-Nov-18 10:39 34.236636 -114.032309 257 28013ft 424kts
24-Nov-18 10:40 34.213011 -114.147615 257 28012ft 424kts
24-Nov-18 10:41 34.179821 -114.308746 257 28011ft 424kts
24-Nov-18 10:42 34.156123 -114.424066 257 28009ft 424kts
24-Nov-18 10:43 34.122327 -114.585344 257 28008ft 425kts
24-Nov-18 10:44 34.093695 -114.699486 248 28010ft 429kts
24-Nov-18 10:45 34.028688 -114.848534 244 28008ft 432kts
24-Nov-18 10:46 33.981263 -114.955153 243 28008ft 431kts
24-Nov-18 10:47 33.914854 -115.103625 243 28010ft 432kts
24-Nov-18 10:48 33.867237 -115.209870 243 28012ft 434kts
24-Nov-18 10:49 33.800095 -115.359325 243 28014ft 436kts
24-Nov-18 10:50 33.751533 -115.466526 243 28013ft 438kts
24-Nov-18 10:51 33.693961 -115.595601 243 28010ft 439kts
24-Nov-18 10:52 33.636589 -115.725512 243 28002ft 440kts
24-Nov-18 10:53 33.571013 -115.848165 236 26644ft 435kts
24-Nov-18 10:54 33.502641 -115.966028 236 23915ft 420kts
24-Nov-18 10:55 33.436675 -116.079865 236 21774ft 412kts
24-Nov-18 10:56 33.371954 -116.190923 236 19954ft 401kts
24-Nov-18 10:57 33.290642 -116.277753 210 18096ft 395kts
24-Nov-18 10:58 33.196123 -116.333130 208 16385ft 358kts
24-Nov-18 10:59 33.109186 -116.383764 208 14835ft 343kts
24-Nov-18 11:00 33.024091 -116.433356 209 13321ft 336kts
24-Nov-18 11:01 32.955462 -116.494027 224 12281ft 289kts
24-Nov-18 11:02 32.895697 -116.554982 223 10722ft 282kts
24-Nov-18 11:03 32.835596 -116.615560 223 9446ft 280kts
24-Nov-18 11:04 32.777503 -116.675683 230 8204ft 273kts
24-Nov-18 11:05 32.741255 -116.746638 244 7071ft 253kts
24-Nov-18 11:06 32.707875 -116.817668 245 5953ft 238kts
24-Nov-18 11:07 32.686599 -116.885339 253 4939ft 193kts
24-Nov-18 11:08 32.673679 -116.943204 280 4073ft 175kts
24-Nov-18 11:09 32.687006 -116.997039 287 3298ft 167kts
24-Nov-18 11:10 32.699843 -117.050183 286 2462ft 169kts
24-Nov-18 11:11 32.711977 -117.100393 285 1586ft 151kts
24-Nov-18 11:12 32.722437 -117.143607 284 753ft 127kts
24-Nov-18 11:13 32.732057 -117.183576 284 24ft 117kts
24-Nov-18 11:14 32.733301 -117.191650 208 23ft 0kts
24-Nov-18 11:15 32.732365 -117.194797 223 23ft 14kts

Navigation Log

Ident Type
Flight plan parsing failed, navigation log unavailable